sensor_id;sensor_type;location;lat;lon;timestamp;pressure;altitude;pressure_sealevel;temperature;humidity
12868;BME280;33517;49.866;8.320;2022-10-30T00:00:29;100808.44;;;12.12;99.04
12868;BME280;33517;49.866;8.320;2022-10-30T00:03:22;100810.94;;;12.05;99.23
12868;BME280;33517;49.866;8.320;2022-10-30T00:06:15;100802.53;;;12.01;100.00
12868;BME280;33517;49.866;8.320;2022-10-30T00:09:07;100803.00;;;11.97;99.87
12868;BME280;33517;49.866;8.320;2022-10-30T00:11:59;100795.59;;;11.92;100.00
12868;BME280;33517;49.866;8.320;2022-10-30T00:14:51;100795.28;;;11.95;100.00
12868;BME280;33517;49.866;8.320;2022-10-30T00:17:43;100798.41;;;11.99;100.00
12868;BME280;33517;49.866;8.320;2022-10-30T00:20:35;100792.66;;;12.03;100.00
12868;BME280;33517;49.866;8.320;2022-10-30T00:23:28;100783.41;;;12.08;100.00
12868;BME280;33517;49.866;8.320;2022-10-30T00:26:21;100795.13;;;12.13;100.00
12868;BME280;33517;49.866;8.320;2022-10-30T00:29:14;100791.97;;;12.18;100.00
12868;BME280;33517;49.866;8.320;2022-10-30T00:32:06;100785.38;;;12.22;100.00
12868;BME280;33517;49.866;8.320;2022-10-30T00:34:58;100790.81;;;12.28;100.00
12868;BME280;33517;49.866;8.320;2022-10-30T00:37:50;100789.97;;;12.36;100.00
12868;BME280;33517;49.866;8.320;2022-10-30T00:40:43;100793.41;;;12.44;100.00
12868;BME280;33517;49.866;8.320;2022-10-30T00:43:37;100797.19;;;12.50;100.00
12868;BME280;33517;49.866;8.320;2022-10-30T00:46:32;100790.09;;;12.58;100.00
12868;BME280;33517;49.866;8.320;2022-10-30T00:49:25;100786.97;;;12.63;99.93
12868;BME280;33517;49.866;8.320;2022-10-30T00:52:18;100784.63;;;12.68;100.00
12868;BME280;33517;49.866;8.320;2022-10-30T00:55:14;100776.88;;;12.66;99.64
12868;BME280;33517;49.866;8.320;2022-10-30T00:58:12;100778.03;;;12.64;100.00
12868;BME280;33517;49.866;8.320;2022-10-30T01:01:08;100779.03;;;12.63;100.00
12868;BME280;33517;49.866;8.320;2022-10-30T01:04:03;100774.25;;;12.58;100.00
12868;BME280;33517;49.866;8.320;2022-10-30T01:06:57;100777.25;;;12.55;100.00
12868;BME280;33517;49.866;8.320;2022-10-30T01:09:49;100776.59;;;12.53;100.00
12868;BME280;33517;49.866;8.320;2022-10-30T01:12:42;100773.13;;;12.53;100.00
12868;BME280;33517;49.866;8.320;2022-10-30T01:15:39;100776.41;;;12.55;100.00
12868;BME280;33517;49.866;8.320;2022-10-30T01:18:39;100774.44;;;12.57;100.00
12868;BME280;33517;49.866;8.320;2022-10-30T01:21:47;100773.25;;;12.59;100.00
12868;BME280;33517;49.866;8.320;2022-10-30T01:24:49;100776.41;;;12.63;100.00
12868;BME280;33517;49.866;8.320;2022-10-30T01:27:55;100773.59;;;12.64;100.00
12868;BME280;33517;49.866;8.320;2022-10-30T01:30:59;100778.03;;;12.64;100.00
12868;BME280;33517;49.866;8.320;2022-10-30T01:33:59;100775.56;;;12.62;100.00
12868;BME280;33517;49.866;8.320;2022-10-30T01:36:56;100777.72;;;12.59;100.00
12868;BME280;33517;49.866;8.320;2022-10-30T01:39:51;100775.41;;;12.56;100.00
12868;BME280;33517;49.866;8.320;2022-10-30T01:42:48;100771.63;;;12.50;100.00
12868;BME280;33517;49.866;8.320;2022-10-30T01:45:50;100774.94;;;12.44;100.00
12868;BME280;33517;49.866;8.320;2022-10-30T01:49:01;100775.78;;;12.37;100.00
12868;BME280;33517;49.866;8.320;2022-10-30T01:52:05;100765.56;;;12.34;100.00
12868;BME280;33517;49.866;8.320;2022-10-30T01:55:06;100769.53;;;12.30;100.00
12868;BME280;33517;49.866;8.320;2022-10-30T01:58:06;100764.44;;;12.28;100.00
12868;BME280;33517;49.866;8.320;2022-10-30T02:01:01;100767.06;;;12.28;100.00
12868;BME280;33517;49.866;8.320;2022-10-30T02:03:54;100773.66;;;12.32;100.00
12868;BME280;33517;49.866;8.320;2022-10-30T02:06:46;100775.94;;;12.35;100.00
12868;BME280;33517;49.866;8.320;2022-10-30T02:09:39;100769.34;;;12.39;100.00
12868;BME280;33517;49.866;8.320;2022-10-30T02:12:31;100769.84;;;12.43;100.00
12868;BME280;33517;49.866;8.320;2022-10-30T02:15:23;100779.91;;;12.47;100.00
12868;BME280;33517;49.866;8.320;2022-10-30T02:18:15;100780.56;;;12.49;100.00
12868;BME280;33517;49.866;8.320;2022-10-30T02:21:08;100769.81;;;12.51;100.00
12868;BME280;33517;49.866;8.320;2022-10-30T02:24:00;100770.00;;;12.49;100.00
12868;BME280;33517;49.866;8.320;2022-10-30T02:26:52;100777.75;;;12.51;100.00
12868;BME280;33517;49.866;8.320;2022-10-30T02:29:44;100771.97;;;12.55;100.00
12868;BME280;33517;49.866;8.320;2022-10-30T02:32:36;100767.00;;;12.60;100.00
12868;BME280;33517;49.866;8.320;2022-10-30T02:35:28;100764.84;;;12.64;100.00
12868;BME280;33517;49.866;8.320;2022-10-30T02:38:21;100766.13;;;12.68;100.00
12868;BME280;33517;49.866;8.320;2022-10-30T02:41:13;100762.16;;;12.72;100.00
12868;BME280;33517;49.866;8.320;2022-10-30T02:44:05;100765.94;;;12.77;100.00
12868;BME280;33517;49.866;8.320;2022-10-30T02:46:57;100767.25;;;12.81;100.00
12868;BME280;33517;49.866;8.320;2022-10-30T02:49:49;100772.53;;;12.81;100.00
12868;BME280;33517;49.866;8.320;2022-10-30T02:52:41;100776.34;;;12.79;100.00
12868;BME280;33517;49.866;8.320;2022-10-30T02:55:34;100776.03;;;12.74;99.91
12868;BME280;33517;49.866;8.320;2022-10-30T02:58:25;100777.34;;;12.70;100.00
12868;BME280;33517;49.866;8.320;2022-10-30T03:01:18;100764.84;;;12.64;100.00
12868;BME280;33517;49.866;8.320;2022-10-30T03:04:10;100767.00;;;12.60;100.00
12868;BME280;33517;49.866;8.320;2022-10-30T03:07:02;100773.78;;;12.55;100.00
12868;BME280;33517;49.866;8.320;2022-10-30T03:09:54;100762.06;;;12.49;100.00
12868;BME280;33517;49.866;8.320;2022-10-30T03:12:47;100772.47;;;12.43;100.00
12868;BME280;33517;49.866;8.320;2022-10-30T03:15:39;100768.50;;;12.39;99.88
12868;BME280;33517;49.866;8.320;2022-10-30T03:18:31;100774.97;;;12.36;100.00
12868;BME280;33517;49.866;8.320;2022-10-30T03:21:25;100773.47;;;12.34;100.00
12868;BME280;33517;49.866;8.320;2022-10-30T03:24:17;100772.66;;;12.33;100.00
12868;BME280;33517;49.866;8.320;2022-10-30T03:27:09;100774.31;;;12.34;100.00
12868;BME280;33517;49.866;8.320;2022-10-30T03:30:02;100783.38;;;12.40;100.00
12868;BME280;33517;49.866;8.320;2022-10-30T03:32:54;100784.03;;;12.42;100.00
12868;BME280;33517;49.866;8.320;2022-10-30T03:35:46;100775.94;;;12.43;100.00
12868;BME280;33517;49.866;8.320;2022-10-30T03:38:38;100775.47;;;12.40;100.00
12868;BME280;33517;49.866;8.320;2022-10-30T03:41:30;100782.06;;;12.44;100.00
12868;BME280;33517;49.866;8.320;2022-10-30T03:44:22;100778.75;;;12.42;100.00
12868;BME280;33517;49.866;8.320;2022-10-30T03:47:15;100781.41;;;12.42;100.00
12868;BME280;33517;49.866;8.320;2022-10-30T03:50:07;100787.16;;;12.37;100.00
12868;BME280;33517;49.866;8.320;2022-10-30T03:52:59;100794.41;;;12.35;100.00
12868;BME280;33517;49.866;8.320;2022-10-30T03:55:56;100782.06;;;12.28;100.00
12868;BME280;33517;49.866;8.320;2022-10-30T03:58:48;100788.84;;;12.22;100.00
12868;BME280;33517;49.866;8.320;2022-10-30T04:01:40;100793.78;;;12.17;100.00
12868;BME280;33517;49.866;8.320;2022-10-30T04:04:33;100782.59;;;12.07;100.00
12868;BME280;33517;49.866;8.320;2022-10-30T04:07:25;100780.91;;;11.98;100.00
12868;BME280;33517;49.866;8.320;2022-10-30T04:10:17;100781.44;;;11.93;100.00
12868;BME280;33517;49.866;8.320;2022-10-30T04:13:10;100782.75;;;11.89;100.00
12868;BME280;33517;49.866;8.320;2022-10-30T04:16:03;100784.53;;;11.89;100.00
12868;BME280;33517;49.866;8.320;2022-10-30T04:18:56;100780.59;;;11.85;100.00
12868;BME280;33517;49.866;8.320;2022-10-30T04:21:49;100781.59;;;11.84;100.00
12868;BME280;33517;49.866;8.320;2022-10-30T04:24:41;100778.28;;;11.82;100.00
12868;BME280;33517;49.866;8.320;2022-10-30T04:27:38;100779.59;;;11.78;100.00
12868;BME280;33517;49.866;8.320;2022-10-30T04:30:30;100770.84;;;11.77;100.00
12868;BME280;33517;49.866;8.320;2022-10-30T04:33:24;100782.25;;;11.78;100.00
12868;BME280;33517;49.866;8.320;2022-10-30T04:36:16;100777.97;;;11.77;100.00
12868;BME280;33517;49.866;8.320;2022-10-30T04:39:10;100775.63;;;11.74;100.00
12868;BME280;33517;49.866;8.320;2022-10-30T04:42:01;100773.00;;;11.74;100.00
12868;BME280;33517;49.866;8.320;2022-10-30T04:44:53;100777.78;;;11.70;100.00
12868;BME280;33517;49.866;8.320;2022-10-30T04:47:45;100774.66;;;11.67;100.00
12868;BME280;33517;49.866;8.320;2022-10-30T04:50:37;100778.41;;;11.64;100.00
12868;BME280;33517;49.866;8.320;2022-10-30T04:53:29;100780.03;;;11.57;100.00
12868;BME280;33517;49.866;8.320;2022-10-30T04:56:22;100779.22;;;11.57;100.00
12868;BME280;33517;49.866;8.320;2022-10-30T04:59:14;100769.66;;;11.56;100.00
12868;BME280;33517;49.866;8.320;2022-10-30T05:02:06;100773.44;;;11.53;100.00
12868;BME280;33517;49.866;8.320;2022-10-30T05:04:58;100773.91;;;11.49;100.00
12868;BME280;33517;49.866;8.320;2022-10-30T05:07:50;100773.75;;;11.42;100.00
12868;BME280;33517;49.866;8.320;2022-10-30T05:10:42;100764.69;;;11.37;100.00
12868;BME280;33517;49.866;8.320;2022-10-30T05:13:35;100768.63;;;11.33;100.00
12868;BME280;33517;49.866;8.320;2022-10-30T05:16:27;100757.72;;;11.28;100.00
12868;BME280;33517;49.866;8.320;2022-10-30T05:19:18;100760.03;;;11.23;100.00
12868;BME280;33517;49.866;8.320;2022-10-30T05:22:11;100753.59;;;11.17;100.00
12868;BME280;33517;49.866;8.320;2022-10-30T05:25:04;100753.41;;;11.10;100.00
12868;BME280;33517;49.866;8.320;2022-10-30T05:27:59;100757.50;;;11.05;100.00
12868;BME280;33517;49.866;8.320;2022-10-30T05:30:52;100751.56;;;11.03;100.00
12868;BME280;33517;49.866;8.320;2022-10-30T05:33:44;100757.47;;;10.97;100.00
12868;BME280;33517;49.866;8.320;2022-10-30T05:36:36;100760.59;;;10.92;100.00
12868;BME280;33517;49.866;8.320;2022-10-30T05:39:28;100757.59;;;10.87;100.00
12868;BME280;33517;49.866;8.320;2022-10-30T05:42:20;100752.19;;;10.89;100.00
12868;BME280;33517;49.866;8.320;2022-10-30T05:45:12;100757.47;;;10.89;100.00
12868;BME280;33517;49.866;8.320;2022-10-30T05:48:06;100764.53;;;10.88;100.00
12868;BME280;33517;49.866;8.320;2022-10-30T05:50:58;100759.56;;;10.85;100.00
12868;BME280;33517;49.866;8.320;2022-10-30T05:53:49;100746.72;;;10.82;100.00
12868;BME280;33517;49.866;8.320;2022-10-30T05:56:41;100757.88;;;10.76;100.00
12868;BME280;33517;49.866;8.320;2022-10-30T05:59:33;100767.56;;;10.68;100.00
12868;BME280;33517;49.866;8.320;2022-10-30T06:02:25;100757.50;;;10.63;100.00
12868;BME280;33517;49.866;8.320;2022-10-30T06:05:18;100760.28;;;10.62;100.00
12868;BME280;33517;49.866;8.320;2022-10-30T06:08:10;100770.16;;;10.60;100.00
12868;BME280;33517;49.866;8.320;2022-10-30T06:11:02;100783.47;;;10.58;100.00
12868;BME280;33517;49.866;8.320;2022-10-30T06:13:54;100779.34;;;10.56;100.00
12868;BME280;33517;49.866;8.320;2022-10-30T06:16:48;100781.28;;;10.54;100.00
12868;BME280;33517;49.866;8.320;2022-10-30T06:19:40;100786.72;;;10.52;100.00
12868;BME280;33517;49.866;8.320;2022-10-30T06:22:33;100785.22;;;10.50;100.00
12868;BME280;33517;49.866;8.320;2022-10-30T06:25:25;100782.91;;;10.47;100.00
12868;BME280;33517;49.866;8.320;2022-10-30T06:28:17;100783.88;;;10.46;100.00
12868;BME280;33517;49.866;8.320;2022-10-30T06:31:09;100780.28;;;10.47;100.00
12868;BME280;33517;49.866;8.320;2022-10-30T06:34:01;100795.06;;;10.48;100.00
12868;BME280;33517;49.866;8.320;2022-10-30T06:36:53;100796.56;;;10.50;100.00
12868;BME280;33517;49.866;8.320;2022-10-30T06:39:46;100789.88;;;10.56;100.00
12868;BME280;33517;49.866;8.320;2022-10-30T06:42:42;100782.69;;;10.66;100.00
12868;BME280;33517;49.866;8.320;2022-10-30T06:45:34;100787.69;;;10.77;100.00
12868;BME280;33517;49.866;8.320;2022-10-30T06:48:26;100795.13;;;10.89;100.00
12868;BME280;33517;49.866;8.320;2022-10-30T06:51:18;100794.53;;;11.03;100.00
12868;BME280;33517;49.866;8.320;2022-10-30T06:54:09;100792.44;;;11.15;100.00
12868;BME280;33517;49.866;8.320;2022-10-30T06:57:03;100788.69;;;11.26;100.00
12868;BME280;33517;49.866;8.320;2022-10-30T06:59:54;100785.56;;;11.30;100.00
12868;BME280;33517;49.866;8.320;2022-10-30T07:02:54;100805.66;;;11.31;100.00
12868;BME280;33517;49.866;8.320;2022-10-30T07:05:46;100807.84;;;11.44;100.00
12868;BME280;33517;49.866;8.320;2022-10-30T07:08:38;100797.69;;;11.65;100.00
12868;BME280;33517;49.866;8.320;2022-10-30T07:11:30;100803.66;;;11.83;100.00
12868;BME280;33517;49.866;8.320;2022-10-30T07:14:23;100806.81;;;12.02;100.00
12868;BME280;33517;49.866;8.320;2022-10-30T07:17:15;100812.25;;;12.33;100.00
12868;BME280;33517;49.866;8.320;2022-10-30T07:20:07;100809.41;;;12.59;100.00
12868;BME280;33517;49.866;8.320;2022-10-30T07:23:00;100814.97;;;12.72;100.00
12868;BME280;33517;49.866;8.320;2022-10-30T07:25:51;100820.00;;;12.97;99.56
12868;BME280;33517;49.866;8.320;2022-10-30T07:28:43;100821.00;;;13.13;99.23
12868;BME280;33517;49.866;8.320;2022-10-30T07:31:37;100818.84;;;13.47;98.25
12868;BME280;33517;49.866;8.320;2022-10-30T07:34:28;100816.38;;;13.76;96.17
12868;BME280;33517;49.866;8.320;2022-10-30T07:37:20;100821.94;;;13.81;97.58
12868;BME280;33517;49.866;8.320;2022-10-30T07:40:12;100819.94;;;14.06;96.95
12868;BME280;33517;49.866;8.320;2022-10-30T07:43:04;100817.41;;;14.12;96.79
12868;BME280;33517;49.866;8.320;2022-10-30T07:45:56;100819.94;;;14.06;97.62
12868;BME280;33517;49.866;8.320;2022-10-30T07:48:50;100822.22;;;13.86;99.00
12868;BME280;33517;49.866;8.320;2022-10-30T07:51:41;100824.44;;;13.74;99.03
12868;BME280;33517;49.866;8.320;2022-10-30T07:54:33;100823.50;;;14.13;98.89
12868;BME280;33517;49.866;8.320;2022-10-30T07:57:25;100820.47;;;14.24;98.50
12868;BME280;33517;49.866;8.320;2022-10-30T08:00:17;100815.31;;;14.22;98.54
12868;BME280;33517;49.866;8.320;2022-10-30T08:03:10;100826.28;;;14.42;97.66
12868;BME280;33517;49.866;8.320;2022-10-30T08:06:03;100825.78;;;15.05;97.12
12868;BME280;33517;49.866;8.320;2022-10-30T08:08:55;100818.63;;;15.70;94.38
12868;BME280;33517;49.866;8.320;2022-10-30T08:11:47;100825.78;;;15.91;93.55
12868;BME280;33517;49.866;8.320;2022-10-30T08:14:39;100824.81;;;16.19;92.98
12868;BME280;33517;49.866;8.320;2022-10-30T08:17:31;100830.72;;;16.64;90.86
12868;BME280;33517;49.866;8.320;2022-10-30T08:20:23;100830.44;;;16.80;91.43
12868;BME280;33517;49.866;8.320;2022-10-30T08:23:17;100841.63;;;16.69;91.97
12868;BME280;33517;49.866;8.320;2022-10-30T08:26:11;100839.63;;;16.77;91.14
12868;BME280;33517;49.866;8.320;2022-10-30T08:29:03;100843.72;;;16.80;90.99
12868;BME280;33517;49.866;8.320;2022-10-30T08:31:55;100841.28;;;16.85;90.87
12868;BME280;33517;49.866;8.320;2022-10-30T08:34:46;100839.13;;;16.95;90.65
12868;BME280;33517;49.866;8.320;2022-10-30T08:37:38;100844.50;;;16.74;90.20
12868;BME280;33517;49.866;8.320;2022-10-30T08:40:31;100839.66;;;16.84;90.48
12868;BME280;33517;49.866;8.320;2022-10-30T08:43:23;100837.97;;;17.10;90.40
12868;BME280;33517;49.866;8.320;2022-10-30T08:46:16;100827.44;;;17.36;88.24
12868;BME280;33517;49.866;8.320;2022-10-30T08:49:08;100828.59;;;17.14;90.24
12868;BME280;33517;49.866;8.320;2022-10-30T08:51:59;100827.97;;;17.19;89.16
12868;BME280;33517;49.866;8.320;2022-10-30T08:54:51;100825.06;;;17.48;88.31
12868;BME280;33517;49.866;8.320;2022-10-30T08:57:45;100821.09;;;17.91;86.51
12868;BME280;33517;49.866;8.320;2022-10-30T09:00:37;100829.41;;;19.12;84.30
12868;BME280;33517;49.866;8.320;2022-10-30T09:03:28;100828.19;;;20.03;81.60
12868;BME280;33517;49.866;8.320;2022-10-30T09:06:20;100829.69;;;20.17;81.15
12868;BME280;33517;49.866;8.320;2022-10-30T09:09:12;100828.59;;;21.17;78.46
12868;BME280;33517;49.866;8.320;2022-10-30T09:12:05;100835.66;;;21.30;77.61
12868;BME280;33517;49.866;8.320;2022-10-30T09:14:58;100834.63;;;21.13;77.44
12868;BME280;33517;49.866;8.320;2022-10-30T09:18:00;100830.00;;;21.20;77.29
12868;BME280;33517;49.866;8.320;2022-10-30T09:20:52;100816.97;;;20.87;77.15
12868;BME280;33517;49.866;8.320;2022-10-30T09:23:44;100816.75;;;21.25;75.19
12868;BME280;33517;49.866;8.320;2022-10-30T09:26:36;100815.66;;;21.14;74.54
12868;BME280;33517;49.866;8.320;2022-10-30T09:29:28;100813.16;;;22.08;72.87
12868;BME280;33517;49.866;8.320;2022-10-30T09:32:22;100823.22;;;22.47;70.98
12868;BME280;33517;49.866;8.320;2022-10-30T09:35:13;100827.97;;;23.38;69.91
12868;BME280;33517;49.866;8.320;2022-10-30T09:38:05;100830.88;;;25.09;65.76
12868;BME280;33517;49.866;8.320;2022-10-30T09:41:16;100829.66;;;26.55;62.44
12868;BME280;33517;49.866;8.320;2022-10-30T09:44:22;100835.31;;;27.37;59.30
12868;BME280;33517;49.866;8.320;2022-10-30T09:47:25;100830.59;;;27.12;59.80
12868;BME280;33517;49.866;8.320;2022-10-30T09:50:24;100829.47;;;27.80;58.75
12868;BME280;33517;49.866;8.320;2022-10-30T09:53:24;100830.63;;;28.29;57.35
12868;BME280;33517;49.866;8.320;2022-10-30T09:56:23;100835.13;;;29.14;55.88
12868;BME280;33517;49.866;8.320;2022-10-30T09:59:26;100827.03;;;29.58;55.84
12868;BME280;33517;49.866;8.320;2022-10-30T10:02:34;100824.66;;;29.95;53.05
12868;BME280;33517;49.866;8.320;2022-10-30T10:05:28;100825.59;;;30.48;51.89
12868;BME280;33517;49.866;8.320;2022-10-30T10:08:27;100817.13;;;30.78;51.17
12868;BME280;33517;49.866;8.320;2022-10-30T10:11:24;100815.22;;;31.26;49.90
12868;BME280;33517;49.866;8.320;2022-10-30T10:14:20;100805.88;;;31.55;47.88
12868;BME280;33517;49.866;8.320;2022-10-30T10:17:18;100808.59;;;31.55;47.81
12868;BME280;33517;49.866;8.320;2022-10-30T10:20:19;100797.16;;;32.09;46.92
12868;BME280;33517;49.866;8.320;2022-10-30T10:23:18;100794.25;;;32.19;46.13
12868;BME280;33517;49.866;8.320;2022-10-30T10:26:27;100793.63;;;31.34;46.52
12868;BME280;33517;49.866;8.320;2022-10-30T10:29:27;100795.63;;;31.47;46.45
12868;BME280;33517;49.866;8.320;2022-10-30T10:33:01;100797.53;;;31.47;45.87
12868;BME280;33517;49.866;8.320;2022-10-30T10:36:04;100796.59;;;31.14;46.31
12868;BME280;33517;49.866;8.320;2022-10-30T10:39:07;100801.84;;;30.82;46.37
12868;BME280;33517;49.866;8.320;2022-10-30T10:42:13;100800.00;;;31.48;45.49
12868;BME280;33517;49.866;8.320;2022-10-30T10:45:18;100793.88;;;31.38;46.50
12868;BME280;33517;49.866;8.320;2022-10-30T10:48:24;100786.53;;;31.94;44.25
12868;BME280;33517;49.866;8.320;2022-10-30T10:51:25;100788.22;;;32.22;44.94
12868;BME280;33517;49.866;8.320;2022-10-30T10:54:22;100784.59;;;32.86;42.81
12868;BME280;33517;49.866;8.320;2022-10-30T10:57:25;100790.81;;;33.27;43.00
12868;BME280;33517;49.866;8.320;2022-10-30T11:00:20;100783.66;;;33.67;41.31
12868;BME280;33517;49.866;8.320;2022-10-30T11:03:14;100781.25;;;33.16;42.28
12868;BME280;33517;49.866;8.320;2022-10-30T11:06:17;100779.78;;;33.32;41.99
12868;BME280;33517;49.866;8.320;2022-10-30T11:09:16;100773.94;;;33.25;42.29
12868;BME280;33517;49.866;8.320;2022-10-30T11:12:10;100775.94;;;33.33;43.13
12868;BME280;33517;49.866;8.320;2022-10-30T11:15:08;100773.78;;;33.44;41.73
12868;BME280;33517;49.866;8.320;2022-10-30T11:18:08;100763.44;;;33.19;41.98
12868;BME280;33517;49.866;8.320;2022-10-30T11:21:02;100767.81;;;32.66;42.87
12868;BME280;33517;49.866;8.320;2022-10-30T11:23:55;100762.84;;;32.68;39.57
12868;BME280;33517;49.866;8.320;2022-10-30T11:26:48;100766.34;;;30.50;41.27
12868;BME280;33517;49.866;8.320;2022-10-30T11:29:47;100767.03;;;30.03;43.72
12868;BME280;33517;49.866;8.320;2022-10-30T11:32:39;100766.09;;;30.99;42.21
12868;BME280;33517;49.866;8.320;2022-10-30T11:35:40;100761.13;;;30.53;41.93
12868;BME280;33517;49.866;8.320;2022-10-30T11:38:32;100761.84;;;30.07;42.00
12868;BME280;33517;49.866;8.320;2022-10-30T11:41:24;100759.00;;;29.88;43.34
12868;BME280;33517;49.866;8.320;2022-10-30T11:44:18;100749.50;;;29.90;43.28
12868;BME280;33517;49.866;8.320;2022-10-30T11:47:12;100749.06;;;30.41;41.57
12868;BME280;33517;49.866;8.320;2022-10-30T11:50:12;100745.88;;;29.61;42.55
12868;BME280;33517;49.866;8.320;2022-10-30T11:53:10;100751.56;;;30.04;41.43
12868;BME280;33517;49.866;8.320;2022-10-30T11:56:12;100751.25;;;28.69;43.46
12868;BME280;33517;49.866;8.320;2022-10-30T11:59:05;100737.47;;;28.45;45.07
12868;BME280;33517;49.866;8.320;2022-10-30T12:02:00;100747.19;;;28.66;44.01
12868;BME280;33517;49.866;8.320;2022-10-30T12:04:53;100747.00;;;29.17;44.91
12868;BME280;33517;49.866;8.320;2022-10-30T12:07:45;100739.25;;;30.11;42.42
12868;BME280;33517;49.866;8.320;2022-10-30T12:10:42;100738.06;;;30.27;41.45
12868;BME280;33517;49.866;8.320;2022-10-30T12:13:39;100738.25;;;29.73;41.36
12868;BME280;33517;49.866;8.320;2022-10-30T12:16:31;100730.84;;;28.86;43.56
12868;BME280;33517;49.866;8.320;2022-10-30T12:19:25;100728.31;;;29.54;42.66
12868;BME280;33517;49.866;8.320;2022-10-30T12:22:26;100724.47;;;29.98;41.47
12868;BME280;33517;49.866;8.320;2022-10-30T12:25:22;100732.09;;;29.58;42.03
12868;BME280;33517;49.866;8.320;2022-10-30T12:28:17;100721.75;;;29.11;43.00
12868;BME280;33517;49.866;8.320;2022-10-30T12:31:12;100713.88;;;28.56;43.77
12868;BME280;33517;49.866;8.320;2022-10-30T12:34:14;100708.78;;;29.57;43.59
12868;BME280;33517;49.866;8.320;2022-10-30T12:37:15;100718.81;;;30.47;42.53
12868;BME280;33517;49.866;8.320;2022-10-30T12:40:13;100714.31;;;30.61;41.16
12868;BME280;33517;49.866;8.320;2022-10-30T12:43:12;100712.13;;;30.87;40.62
12868;BME280;33517;49.866;8.320;2022-10-30T12:46:20;100703.81;;;30.31;41.52
12868;BME280;33517;49.866;8.320;2022-10-30T12:49:21;100708.91;;;30.80;41.34
12868;BME280;33517;49.866;8.320;2022-10-30T12:52:18;100705.38;;;30.84;40.48
12868;BME280;33517;49.866;8.320;2022-10-30T12:55:16;100703.41;;;31.09;38.72
12868;BME280;33517;49.866;8.320;2022-10-30T12:58:17;100701.78;;;30.13;40.53
12868;BME280;33517;49.866;8.320;2022-10-30T13:01:18;100692.88;;;29.45;41.88
12868;BME280;33517;49.866;8.320;2022-10-30T13:04:17;100694.53;;;29.36;42.08
12868;BME280;33517;49.866;8.320;2022-10-30T13:07:17;100686.38;;;27.88;44.81
12868;BME280;33517;49.866;8.320;2022-10-30T13:10:24;100685.78;;;27.21;46.85
12868;BME280;33517;49.866;8.320;2022-10-30T13:13:20;100682.88;;;27.63;46.27
12868;BME280;33517;49.866;8.320;2022-10-30T13:16:15;100683.06;;;27.26;47.79
12868;BME280;33517;49.866;8.320;2022-10-30T13:19:10;100687.44;;;27.37;47.33
12868;BME280;33517;49.866;8.320;2022-10-30T13:22:06;100690.13;;;27.32;47.23
12868;BME280;33517;49.866;8.320;2022-10-30T13:25:04;100688.44;;;26.44;49.36
12868;BME280;33517;49.866;8.320;2022-10-30T13:28:05;100677.00;;;26.79;49.54
12868;BME280;33517;49.866;8.320;2022-10-30T13:31:09;100677.72;;;27.41;47.13
12868;BME280;33517;49.866;8.320;2022-10-30T13:34:12;100689.34;;;27.37;48.00
12868;BME280;33517;49.866;8.320;2022-10-30T13:37:11;100683.31;;;26.42;49.14
12868;BME280;33517;49.866;8.320;2022-10-30T13:40:15;100677.53;;;25.55;51.79
12868;BME280;33517;49.866;8.320;2022-10-30T13:43:20;100682.91;;;24.59;54.50
12868;BME280;33517;49.866;8.320;2022-10-30T13:46:23;100670.09;;;23.73;57.25
12868;BME280;33517;49.866;8.320;2022-10-30T13:52:35;100674.88;;;23.26;59.71
12868;BME280;33517;49.866;8.320;2022-10-30T13:55:30;100673.41;;;23.19;61.08
12868;BME280;33517;49.866;8.320;2022-10-30T13:58:31;100674.94;;;22.86;62.63
12868;BME280;33517;49.866;8.320;2022-10-30T14:01:30;100676.97;;;22.68;63.72
12868;BME280;33517;49.866;8.320;2022-10-30T14:04:29;100674.19;;;22.51;64.58
12868;BME280;33517;49.866;8.320;2022-10-30T14:07:29;100678.75;;;22.28;65.39
12868;BME280;33517;49.866;8.320;2022-10-30T14:10:41;100676.13;;;22.16;66.27
12868;BME280;33517;49.866;8.320;2022-10-30T14:13:50;100674.03;;;22.07;65.71
12868;BME280;33517;49.866;8.320;2022-10-30T14:16:44;100674.94;;;22.12;65.78
12868;BME280;33517;49.866;8.320;2022-10-30T14:23:07;100677.47;;;21.84;67.36
12868;BME280;33517;49.866;8.320;2022-10-30T14:26:19;100676.63;;;21.72;67.90
12868;BME280;33517;49.866;8.320;2022-10-30T14:29:37;100671.72;;;21.57;68.57
12868;BME280;33517;49.866;8.320;2022-10-30T14:32:39;100679.66;;;21.64;68.00
12868;BME280;33517;49.866;8.320;2022-10-30T14:35:37;100681.84;;;21.67;67.76
12868;BME280;33517;49.866;8.320;2022-10-30T14:38:33;100680.59;;;21.69;66.68
12868;BME280;33517;49.866;8.320;2022-10-30T14:41:43;100689.44;;;21.70;67.05
12868;BME280;33517;49.866;8.320;2022-10-30T14:45:00;100669.63;;;21.59;68.54
12868;BME280;33517;49.866;8.320;2022-10-30T14:47:56;100671.84;;;21.51;67.93
12868;BME280;33517;49.866;8.320;2022-10-30T14:51:00;100668.50;;;21.26;69.44
12868;BME280;33517;49.866;8.320;2022-10-30T14:53:59;100672.69;;;21.22;69.35
12868;BME280;33517;49.866;8.320;2022-10-30T14:56:54;100666.50;;;21.21;68.91
12868;BME280;33517;49.866;8.320;2022-10-30T14:59:46;100673.59;;;21.16;68.48
12868;BME280;33517;49.866;8.320;2022-10-30T15:02:50;100672.50;;;21.05;68.60
12868;BME280;33517;49.866;8.320;2022-10-30T15:05:50;100676.94;;;20.93;69.21
12868;BME280;33517;49.866;8.320;2022-10-30T15:09:01;100675.72;;;20.77;69.84
12868;BME280;33517;49.866;8.320;2022-10-30T15:12:07;100673.84;;;20.60;71.05
12868;BME280;33517;49.866;8.320;2022-10-30T15:15:05;100678.09;;;20.49;71.13
12868;BME280;33517;49.866;8.320;2022-10-30T15:18:07;100678.91;;;20.32;72.02